Time;durP1;ratioP1;P1;durP2;ratioP2;P2;SDS_P1;SDS_P2;PMS_P1;PMS_P2;Temp;Humidity;BMP_temperature;BMP_pressure;BME280_temperature;BME280_humidity;BME280_pressure;Samples;Min_cycle;Max_cycle;Signal;HPM_P1;HPM_P2
2021/05/02 00:01:14;;;;;;;9.75;3.35;;;;;;;22.51;50.08;98484.81;6305027;22;19999;-78
2021/05/02 00:03:39;;;;;;;6.50;3.63;;;;;;;22.51;50.21;98487.53;6303710;22;19999;-77
2021/05/02 00:06:06;;;;;;;7.32;3.50;;;;;;;22.50;50.09;98477.78;6303538;22;20007;-78
2021/05/02 00:08:32;;;;;;;9.55;3.15;;;;;;;22.47;49.37;98459.44;6277563;22;19999;-78
2021/05/02 00:10:58;;;;;;;5.35;2.30;;;;;;;22.45;49.45;98450.84;6303546;22;20023;-78
2021/05/02 00:13:23;;;;;;;7.28;2.88;;;;;;;22.44;49.15;98452.78;6303358;22;20006;-78
2021/05/02 00:15:49;;;;;;;7.05;2.65;;;;;;;22.43;49.13;98445.75;6305154;22;20114;-78
2021/05/02 00:18:17;;;;;;;7.90;3.03;;;;;;;22.43;48.81;98445.00;6277359;22;20313;-78
2021/05/02 00:20:43;;;;;;;7.70;3.72;;;;;;;22.41;48.47;98450.81;6305213;22;20002;-78
2021/05/02 00:23:08;;;;;;;5.90;3.15;;;;;;;22.43;48.04;98450.44;6303256;22;20006;-78
2021/05/02 00:25:35;;;;;;;12.05;3.53;;;;;;;22.41;47.88;98442.66;6303492;22;19999;-78
2021/05/02 00:28:06;;;;;;;7.85;3.55;;;;;;;22.39;47.80;98445.72;6304975;22;20069;-78
2021/05/02 00:30:32;;;;;;;6.43;3.45;;;;;;;22.38;47.83;98438.69;6302960;22;20034;-77
2021/05/02 00:33:00;;;;;;;3.88;2.33;;;;;;;22.42;47.59;98446.91;6303430;22;20416;-78
2021/05/02 00:35:25;;;;;;;8.63;3.08;;;;;;;22.42;47.63;98441.47;6304775;22;20324;-78
2021/05/02 00:37:53;;;;;;;7.50;2.75;;;;;;;22.42;47.74;98443.41;6305057;22;20031;-78
2021/05/02 00:40:38;;;;;;;7.15;3.75;;;;;;;22.40;46.89;98441.06;6303277;22;20057;-77
2021/05/02 00:43:10;;;;;;;8.80;2.90;;;;;;;22.39;47.00;98440.28;6277598;22;20416;-78
2021/05/02 00:46:02;;;;;;;7.68;3.40;;;;;;;22.41;46.98;98442.66;6305136;22;20367;-78
2021/05/02 00:48:34;;;;;;;7.40;2.75;;;;;;;22.40;46.97;98454.69;6200428;22;20022;-78
2021/05/02 00:51:04;;;;;;;5.43;2.95;;;;;;;22.38;46.88;98452.31;6277536;22;20090;-78
2021/05/02 00:53:55;;;;;;;6.30;2.85;;;;;;;22.37;46.98;98455.38;6277263;22;20007;-77
2021/05/02 00:56:30;;;;;;;5.25;2.45;;;;;;;22.32;47.04;98442.09;6277183;22;19999;-78
2021/05/02 00:59:03;;;;;;;7.30;2.92;;;;;;;22.32;47.25;98450.28;6303335;22;20323;-78
2021/05/02 01:01:38;;;;;;;6.45;2.40;;;;;;;22.27;47.12;98445.16;6277268;22;20050;-78
2021/05/02 01:04:05;;;;;;;5.68;2.25;;;;;;;22.26;47.07;98455.25;6277331;22;20011;-78
2021/05/02 01:06:32;;;;;;;7.22;2.83;;;;;;;22.23;47.22;98451.31;6277214;22;20003;-78
2021/05/02 01:09:04;;;;;;;7.77;2.43;;;;;;;22.20;47.23;98446.63;6306854;22;19999;-78
2021/05/02 01:11:30;;;;;;;7.15;2.70;;;;;;;22.18;47.14;98448.94;6304964;22;20241;-77
2021/05/02 01:13:58;;;;;;;7.32;2.58;;;;;;;22.16;46.89;98447.72;6279512;22;20325;-78
2021/05/02 01:16:28;;;;;;;6.00;2.92;;;;;;;22.13;47.20;98437.56;6304845;22;20416;-78
2021/05/02 01:18:55;;;;;;;5.28;2.58;;;;;;;22.08;47.37;98444.09;6306928;22;20006;-77
2021/05/02 01:21:29;;;;;;;10.00;2.70;;;;;;;22.06;47.58;98446.44;6279292;22;20003;-78
2021/05/02 01:23:55;;;;;;;6.35;2.42;;;;;;;22.04;47.68;98438.59;6279449;22;20081;-77
2021/05/02 01:26:22;;;;;;;14.00;3.10;;;;;;;22.02;48.21;98434.69;6304800;22;19999;-78
2021/05/02 01:28:52;;;;;;;7.88;2.47;;;;;;;21.97;48.11;98435.00;6305270;22;20081;-78
2021/05/02 01:31:18;;;;;;;4.07;2.40;;;;;;;21.93;48.13;98439.63;6304655;22;20007;-77
2021/05/02 01:33:45;;;;;;;5.50;2.20;;;;;;;21.86;48.47;98430.22;6305089;22;20376;-77
2021/05/02 01:36:11;;;;;;;3.75;3.00;;;;;;;21.79;48.62;98434.75;6305122;22;20340;-77
2021/05/02 01:38:37;;;;;;;4.05;2.17;;;;;;;21.69;48.68;98425.28;6278962;22;20003;-77
2021/05/02 01:41:03;;;;;;;8.07;3.28;;;;;;;21.59;48.92;98419.31;6279198;22;20090;-77
2021/05/02 01:43:28;;;;;;;9.73;2.45;;;;;;;21.52;49.23;98421.09;6279011;22;20034;-77
2021/05/02 01:45:55;;;;;;;9.90;2.58;;;;;;;21.43;49.50;98416.72;6306618;22;20469;-77
2021/05/02 01:48:22;;;;;;;6.07;2.67;;;;;;;21.36;49.48;98415.78;6304624;22;20412;-77
2021/05/02 01:50:51;;;;;;;9.15;2.97;;;;;;;21.31;49.20;98405.22;6279094;22;19995;-77
2021/05/02 01:53:18;;;;;;;7.38;2.65;;;;;;;21.25;49.42;98402.00;6304663;22;19999;-77
2021/05/02 01:55:46;;;;;;;7.78;2.72;;;;;;;21.19;49.63;98392.59;6306406;22;19999;-77
2021/05/02 01:58:12;;;;;;;8.82;2.33;;;;;;;21.13;49.62;98385.88;6278993;22;20354;-77
2021/05/02 02:00:40;;;;;;;7.47;2.88;;;;;;;21.07;49.73;98391.63;6304444;22;20029;-77
2021/05/02 02:03:08;;;;;;;7.13;2.78;;;;;;;21.03;49.59;98390.78;6306476;22;19995;-77
2021/05/02 02:05:36;;;;;;;10.48;2.75;;;;;;;21.03;49.76;98390.00;6306231;22;20015;-76
2021/05/02 02:08:04;;;;;;;10.82;2.75;;;;;;;21.01;49.21;98381.44;6304877;22;20003;-77
2021/05/02 02:10:30;;;;;;;6.57;2.47;;;;;;;20.98;49.29;98382.16;6278577;22;20003;-78
2021/05/02 02:12:55;;;;;;;6.70;2.72;;;;;;;20.93;49.34;98369.63;6279007;22;20003;-78
2021/05/02 02:15:21;;;;;;;5.47;2.55;;;;;;;20.93;49.19;98367.72;6304611;22;20436;-77
2021/05/02 02:17:46;;;;;;;11.48;2.53;;;;;;;20.91;49.52;98366.47;6278960;22;20005;-77
2021/05/02 02:20:13;;;;;;;7.88;3.40;;;;;;;20.89;49.41;98364.13;6278974;22;20014;-77
2021/05/02 02:22:40;;;;;;;8.25;2.63;;;;;;;20.85;49.69;98366.00;6278676;22;20030;-77
2021/05/02 02:25:07;;;;;;;5.63;2.28;;;;;;;20.84;49.57;98366.38;6304735;22;19999;-77
2021/05/02 02:27:34;;;;;;;7.33;2.33;;;;;;;20.82;50.01;98377.59;6278578;22;20007;-77
2021/05/02 02:30:03;;;;;;;7.80;3.40;;;;;;;20.79;50.06;98370.19;6278205;22;20308;-77
2021/05/02 02:32:29;;;;;;;6.55;2.33;;;;;;;20.75;50.33;98369.31;6304335;22;20007;-77
2021/05/02 02:34:57;;;;;;;7.82;2.40;;;;;;;20.72;50.17;98359.19;6304505;22;20336;-77
2021/05/02 02:37:24;;;;;;;6.45;2.38;;;;;;;20.69;50.43;98360.66;6278191;22;19995;-77
2021/05/02 02:39:58;;;;;;;6.00;2.30;;;;;;;20.69;50.51;98355.22;6306275;22;19999;-77
2021/05/02 02:42:25;;;;;;;6.47;2.20;;;;;;;20.64;50.45;98339.19;6304225;22;20003;-77
2021/05/02 02:45:04;;;;;;;8.48;3.30;;;;;;;20.64;50.56;98341.91;6304566;22;20035;-77
2021/05/02 02:47:34;;;;;;;3.75;1.83;;;;;;;20.60;50.69;98341.06;6304027;22;20007;-77
2021/05/02 02:50:04;;;;;;;7.90;3.53;;;;;;;20.61;50.54;98339.94;6305971;22;19999;-77
2021/05/02 02:52:30;;;;;;;6.25;2.63;;;;;;;20.60;50.42;98341.06;6304277;22;20451;-77
2021/05/02 02:54:59;;;;;;;9.75;2.53;;;;;;;20.63;50.37;98332.22;6304374;22;20026;-77
2021/05/02 02:57:27;;;;;;;5.00;2.35;;;;;;;20.66;50.27;98338.84;6278328;22;19999;-77
2021/05/02 02:59:57;;;;;;;5.63;2.55;;;;;;;20.69;50.17;98340.84;6278462;22;20010;-77
2021/05/02 03:02:24;;;;;;;6.10;3.15;;;;;;;20.73;50.01;98347.94;6303974;22;20004;-77
2021/05/02 03:04:53;;;;;;;8.38;2.50;;;;;;;20.74;50.12;98346.03;6305765;22;20003;-77
2021/05/02 03:07:23;;;;;;;7.70;3.00;;;;;;;20.79;49.83;98345.72;6278197;22;20015;-78
2021/05/02 03:09:49;;;;;;;5.30;2.20;;;;;;;20.85;49.59;98351.63;6305887;22;20003;-77
2021/05/02 03:12:22;;;;;;;8.45;2.65;;;;;;;20.88;49.65;98348.97;6278331;22;20081;-77
2021/05/02 03:14:50;;;;;;;6.13;2.40;;;;;;;20.92;49.45;98343.59;6278494;22;20006;-77
2021/05/02 03:17:28;;;;;;;6.75;2.15;;;;;;;20.95;49.09;98351.81;6305964;22;19999;-77
2021/05/02 03:20:03;;;;;;;5.32;2.20;;;;;;;21.00;49.30;98345.28;6304121;22;20051;-77
2021/05/02 03:22:49;;;;;;;6.28;2.88;;;;;;;21.06;49.04;98349.28;6278090;22;20006;-77
2021/05/02 03:25:21;;;;;;;5.93;2.17;;;;;;;21.09;48.99;98347.75;6278416;22;20006;-78
2021/05/02 03:27:53;;;;;;;7.55;2.50;;;;;;;21.08;48.65;98338.84;6303511;22;19999;-76
2021/05/02 03:30:21;;;;;;;8.02;2.75;;;;;;;21.15;48.37;98345.53;6304850;22;19999;-77
2021/05/02 03:32:47;;;;;;;;;;;;;;;21.19;48.09;98341.72;6304581;22;20002;-77
2021/05/02 03:35:15;;;;;;;8.48;2.67;;;;;;;21.22;47.84;98329.34;6278263;22;19903;-77
2021/05/02 03:37:48;;;;;;;7.40;3.30;;;;;;;21.22;47.85;98335.53;6305451;22;20006;-77
2021/05/02 03:40:14;;;;;;;4.10;2.90;;;;;;;21.24;47.72;98316.16;6278151;22;20052;-77
2021/05/02 03:42:39;;;;;;;7.45;3.08;;;;;;;21.26;47.45;98322.81;6303548;22;20104;-77
2021/05/02 03:45:05;;;;;;;8.15;2.38;;;;;;;21.27;47.60;98318.91;6277792;22;20049;-77
2021/05/02 03:47:31;;;;;;;6.72;2.47;;;;;;;21.34;47.40;98326.41;6303541;22;20044;-77
2021/05/02 03:49:56;;;;;;;7.15;2.33;;;;;;;21.36;47.49;98324.13;6277998;22;20011;-77
2021/05/02 03:52:21;;;;;;;6.50;2.55;;;;;;;21.40;47.27;98324.94;6303553;22;19999;-77
2021/05/02 03:54:53;;;;;;;5.97;2.83;;;;;;;21.44;47.16;98322.28;6303948;22;20358;-77
2021/05/02 03:57:19;;;;;;;5.88;2.33;;;;;;;21.47;47.25;98332.44;6277950;22;20081;-77
2021/05/02 03:59:45;;;;;;;4.47;2.28;;;;;;;21.51;47.45;98332.50;6277758;22;19996;-77
2021/05/02 04:02:13;;;;;;;6.15;2.58;;;;;;;21.52;47.33;98334.84;6303792;22;20387;-77
2021/05/02 04:04:41;;;;;;;7.88;3.05;;;;;;;21.56;47.30;98335.69;6277450;22;20389;-77
2021/05/02 04:07:11;;;;;;;6.95;2.50;;;;;;;21.57;47.39;98337.25;6278109;22;20325;-77
2021/05/02 04:09:39;;;;;;;6.60;2.75;;;;;;;21.58;47.39;98341.56;6277254;22;20060;-78
2021/05/02 04:12:05;;;;;;;14.88;2.95;;;;;;;21.59;47.34;98342.34;6303642;22;19999;-77
2021/05/02 04:14:31;;;;;;;7.88;3.28;;;;;;;21.61;47.48;98336.53;6277740;22;20003;-77
2021/05/02 04:16:58;;;;;;;5.35;2.22;;;;;;;21.63;47.18;98326.88;6305328;22;20061;-77
2021/05/02 04:19:24;;;;;;;6.53;2.50;;;;;;;21.65;47.31;98329.22;6303367;22;20003;-77
2021/05/02 04:21:50;;;;;;;5.13;2.40;;;;;;;21.69;47.12;98327.31;6303759;22;20087;-77
2021/05/02 04:24:16;;;;;;;8.02;2.58;;;;;;;21.73;47.10;98334.38;6303792;22;20038;-77
2021/05/02 04:26:46;;;;;;;6.28;2.58;;;;;;;21.75;47.89;98337.53;6303344;22;20429;-77
2021/05/02 04:29:12;;;;;;;11.27;2.65;;;;;;;21.74;48.58;98327.00;6303509;22;20041;-77
2021/05/02 04:31:37;;;;;;;8.10;2.80;;;;;;;21.75;48.79;98339.44;6303287;22;20000;-78
2021/05/02 04:34:06;;;;;;;9.73;2.67;;;;;;;21.73;49.80;98337.09;6303801;22;20064;-78
2021/05/02 04:36:32;;;;;;;13.57;5.82;;;;;;;21.72;49.51;98340.97;6277712;22;20464;-78
2021/05/02 04:38:58;;;;;;;7.15;3.63;;;;;;;21.73;49.03;98352.66;6303627;22;20138;-78
2021/05/02 04:41:24;;;;;;;9.55;3.95;;;;;;;21.75;49.38;98348.41;6277072;22;20082;-78
2021/05/02 04:43:50;;;;;;;11.90;3.60;;;;;;;21.83;49.44;98354.72;6303418;22;20049;-78
2021/05/02 04:46:17;;;;;;;9.45;4.07;;;;;;;21.92;48.20;98351.72;6303551;22;20003;-78
2021/05/02 04:48:43;;;;;;;6.55;3.00;;;;;;;22.05;47.89;98355.00;6277843;22;20363;-78
2021/05/02 04:51:10;;;;;;;9.80;3.83;;;;;;;22.16;47.89;98358.63;6303532;22;20033;-79
2021/05/02 04:53:36;;;;;;;9.55;3.22;;;;;;;22.26;48.16;98359.16;6277390;22;20383;-78
2021/05/02 04:56:01;;;;;;;9.95;3.20;;;;;;;22.38;47.81;98364.38;6277855;22;20003;-78
2021/05/02 04:58:26;;;;;;;13.13;2.97;;;;;;;22.51;47.30;98368.41;6303308;22;20329;-79
2021/05/02 05:00:52;;;;;;;5.00;2.83;;;;;;;22.66;46.71;98366.63;6303386;22;20090;-78
2021/05/02 05:03:17;;;;;;;8.80;3.88;;;;;;;22.86;47.16;98385.50;6303003;22;20037;-79
2021/05/02 05:05:43;;;;;;;6.43;3.38;;;;;;;23.05;45.95;98387.25;6305027;22;20034;-79
2021/05/02 05:08:09;;;;;;;7.07;2.85;;;;;;;23.25;45.85;98393.28;6303313;22;20432;-78
2021/05/02 05:10:35;;;;;;;5.05;2.35;;;;;;;23.55;45.01;98388.84;6304774;22;20037;-78
2021/05/02 05:13:01;;;;;;;5.55;3.08;;;;;;;23.81;44.61;98387.84;6303227;22;20003;-78
2021/05/02 05:15:27;;;;;;;6.82;3.30;;;;;;;24.13;44.56;98388.03;6302912;22;20011;-78
2021/05/02 05:17:52;;;;;;;8.48;2.90;;;;;;;24.49;43.61;98379.19;6303241;22;20061;-77
2021/05/02 05:20:17;;;;;;;10.68;2.97;;;;;;;24.84;42.93;98383.22;6303028;22;20439;-78
2021/05/02 05:22:43;;;;;;;6.75;2.63;;;;;;;25.16;42.29;98366.03;6302923;22;19999;-78
2021/05/02 05:25:09;;;;;;;9.00;3.10;;;;;;;25.40;42.04;98355.47;6303155;22;20003;-78
2021/05/02 05:27:34;;;;;;;10.05;3.50;;;;;;;25.61;42.08;98359.38;6277108;22;20390;-78
2021/05/02 05:30:00;;;;;;;7.32;2.63;;;;;;;25.91;41.46;98347.19;6302967;22;20003;-78
2021/05/02 05:32:25;;;;;;;5.22;3.15;;;;;;;26.26;40.64;98337.28;6304428;22;20466;-78
2021/05/02 05:34:51;;;;;;;5.75;2.35;;;;;;;26.72;39.58;98343.66;6304644;22;19995;-78
2021/05/02 05:37:16;;;;;;;5.10;2.15;;;;;;;27.17;38.46;98341.00;6304705;22;20003;-78
2021/05/02 05:39:42;;;;;;;4.28;2.58;;;;;;;27.56;37.70;98339.88;6302731;22;20068;-78
2021/05/02 05:42:08;;;;;;;7.35;2.67;;;;;;;27.95;36.93;98343.38;6304341;22;20006;-78
2021/05/02 05:44:34;;;;;;;7.25;3.33;;;;;;;28.37;36.49;98340.50;6302731;22;20006;-78
2021/05/02 05:46:59;;;;;;;8.30;3.33;;;;;;;28.74;35.68;98327.84;6303020;22;20391;-78
2021/05/02 05:49:25;;;;;;;8.15;3.53;;;;;;;29.07;35.11;98322.59;6302966;22;19999;-78
2021/05/02 05:51:53;;;;;;;4.72;2.75;;;;;;;29.36;34.00;98313.88;6302429;22;20412;-78
2021/05/02 05:54:22;;;;;;;6.60;2.35;;;;;;;29.63;34.56;98305.50;6303996;22;20091;-78
2021/05/02 05:56:48;;;;;;;9.05;2.80;;;;;;;29.95;33.66;98301.34;6304468;22;20011;-78
2021/05/02 05:59:14;;;;;;;9.02;2.75;;;;;;;30.24;32.74;98306.25;6304842;22;19999;-78
2021/05/02 06:01:40;;;;;;;5.00;3.47;;;;;;;30.55;32.34;98303.22;6304541;22;20007;-78
2021/05/02 06:04:05;;;;;;;8.20;2.45;;;;;;;30.87;31.94;98298.13;6306116;22;20010;-78
2021/05/02 06:06:40;;;;;;;4.50;2.22;;;;;;;31.19;29.32;98274.47;6304513;22;20086;-78
2021/05/02 06:09:07;;;;;;;9.13;3.15;;;;;;;31.44;29.08;98269.06;6279063;22;20014;-77
2021/05/02 06:11:34;;;;;;;9.82;2.72;;;;;;;31.64;29.46;98275.63;6278507;22;20389;-78
2021/05/02 06:14:00;;;;;;;5.80;3.15;;;;;;;31.90;29.72;98293.84;6305959;22;20084;-78
2021/05/02 06:16:26;;;;;;;7.07;3.10;;;;;;;32.12;29.03;98287.69;6304374;22;19999;-78
2021/05/02 06:18:56;;;;;;;11.68;2.75;;;;;;;32.36;27.94;98288.19;6305911;22;20014;-78
2021/05/02 06:21:22;;;;;;;10.77;5.78;;;;;;;32.63;27.56;98291.69;6304261;22;20080;-78
2021/05/02 06:23:50;;;;;;;5.35;3.05;;;;;;;32.80;27.33;98297.91;6305975;22;19995;-78
2021/05/02 06:26:18;;;;;;;9.88;4.38;;;;;;;32.93;26.96;98297.88;6304636;22;20325;-78
2021/05/02 06:28:44;;;;;;;8.80;4.13;;;;;;;33.02;26.49;98290.44;6305890;22;20010;-78
2021/05/02 06:31:11;;;;;;;7.65;3.55;;;;;;;32.95;31.36;98290.66;6304373;22;20365;-78
2021/05/02 06:33:36;;;;;;;7.40;3.65;;;;;;;32.61;33.23;98272.75;6305648;22;20006;-78
2021/05/02 06:36:02;;;;;;;5.45;2.90;;;;;;;32.17;33.66;98258.72;6278789;22;20429;-77
2021/05/02 06:38:27;;;;;;;6.82;3.90;;;;;;;31.73;34.23;98267.50;6306226;22;19999;-78
2021/05/02 06:40:53;;;;;;;9.10;3.78;;;;;;;31.36;34.19;98273.22;6306123;22;20032;-78
2021/05/02 06:43:18;;;;;;;4.75;2.55;;;;;;;30.70;37.19;98256.75;6304776;22;20030;-77
2021/05/02 06:45:44;;;;;;;9.07;3.10;;;;;;;29.98;37.88;98272.94;6306293;22;20487;-78
2021/05/02 06:48:09;;;;;;;8.52;3.42;;;;;;;29.34;39.44;98269.47;6304724;22;20420;-78
2021/05/02 06:50:35;;;;;;;7.25;3.15;;;;;;;28.83;40.23;98269.53;6304436;22;20488;-78
2021/05/02 06:53:01;;;;;;;8.90;3.65;;;;;;;28.13;40.29;98273.72;6304854;22;20436;-78
2021/05/02 06:55:26;;;;;;;9.20;3.22;;;;;;;27.59;42.47;98275.91;6305985;22;19999;-77
2021/05/02 06:57:53;;;;;;;8.93;3.67;;;;;;;27.11;43.79;98274.00;6304449;22;20597;-77
2021/05/02 07:00:19;;;;;;;6.80;3.10;;;;;;;26.75;44.97;98277.84;6305961;22;20022;-77
2021/05/02 07:02:44;;;;;;;4.50;2.88;;;;;;;26.47;45.88;98285.06;6278676;22;20420;-77
2021/05/02 07:05:10;;;;;;;11.02;3.45;;;;;;;26.18;46.51;98288.00;6305504;22;20444;-77
2021/05/02 07:07:36;;;;;;;5.97;3.17;;;;;;;25.91;47.04;98298.66;6304167;22;20440;-77
2021/05/02 07:10:01;;;;;;;8.30;3.92;;;;;;;25.66;47.03;98288.56;6304430;22;20007;-76
2021/05/02 07:12:27;;;;;;;6.03;3.28;;;;;;;25.42;47.57;98290.97;6304440;22;20011;-76
2021/05/02 07:14:52;;;;;;;8.07;3.38;;;;;;;25.17;48.16;98287.47;6304165;22;20440;-76
2021/05/02 07:17:18;;;;;;;9.63;3.75;;;;;;;24.89;48.91;98281.63;6305640;22;19999;-76
2021/05/02 07:19:44;;;;;;;10.40;3.67;;;;;;;24.69;49.44;98292.16;6304140;22;20006;-77
2021/05/02 07:22:10;;;;;;;11.05;3.60;;;;;;;24.58;50.08;98300.34;6278420;22;20038;-76
2021/05/02 07:24:35;;;;;;;12.07;3.20;;;;;;;24.49;50.10;98299.94;6277976;22;20003;-76
2021/05/02 07:27:01;;;;;;;9.05;3.67;;;;;;;24.40;51.27;98303.03;6305887;22;20009;-77
2021/05/02 07:29:27;;;;;;;6.38;3.28;;;;;;;24.26;50.81;98320.16;6304167;22;20486;-77
2021/05/02 07:31:52;;;;;;;8.38;4.05;;;;;;;24.21;50.72;98323.28;6278018;22;20625;-77
2021/05/02 07:34:19;;;;;;;8.57;3.83;;;;;;;24.13;50.70;98330.69;6278410;22;20451;-76
2021/05/02 07:36:45;;;;;;;7.13;3.38;;;;;;;24.11;50.69;98316.63;6305456;22;19999;-76
2021/05/02 07:39:11;;;;;;;9.55;4.13;;;;;;;24.09;50.89;98318.16;6305143;22;20392;-77
2021/05/02 07:41:36;;;;;;;5.20;3.67;;;;;;;24.06;50.58;98332.56;6277759;22;20027;-77
2021/05/02 07:44:02;;;;;;;6.05;3.17;;;;;;;24.09;50.39;98320.91;6305456;22;19999;-77
2021/05/02 07:46:28;;;;;;;10.60;3.38;;;;;;;24.06;50.88;98332.56;6277614;22;20003;-77
2021/05/02 07:48:54;;;;;;;15.65;4.00;;;;;;;24.06;50.86;98327.13;6303577;22;20003;-77
2021/05/02 07:51:19;;;;;;;9.45;3.90;;;;;;;23.97;50.78;98343.84;6278138;22;20010;-76
2021/05/02 07:53:47;;;;;;;10.23;4.35;;;;;;;24.03;50.62;98317.75;6305006;22;20002;-78
2021/05/02 07:56:12;;;;;;;13.50;4.13;;;;;;;24.02;50.95;98335.28;6303705;22;20448;-77
2021/05/02 07:58:38;;;;;;;6.38;2.95;;;;;;;24.05;51.29;98336.50;6304736;22;20006;-77
2021/05/02 08:01:03;;;;;;;7.03;2.85;;;;;;;24.06;50.57;98335.31;6277845;22;19999;-77
2021/05/02 08:03:29;;;;;;;10.18;3.28;;;;;;;24.06;50.67;98344.31;6303732;22;20011;-77
2021/05/02 08:05:54;;;;;;;5.80;2.88;;;;;;;24.16;50.31;98331.84;6274622;22;20015;-77
2021/05/02 08:08:20;;;;;;;5.32;2.67;;;;;;;24.24;50.11;98327.19;6272595;22;20333;-77
2021/05/02 08:10:45;;;;;;;4.95;2.95;;;;;;;24.27;47.97;98319.00;6246727;22;19999;-77
2021/05/02 08:13:16;;;;;;;9.63;4.15;;;;;;;24.29;47.38;98319.41;6273081;22;20008;-77
2021/05/02 08:15:42;;;;;;;7.38;3.45;;;;;;;24.36;47.61;98312.41;6273769;22;20451;-77
2021/05/02 08:18:08;;;;;;;7.50;3.10;;;;;;;24.40;47.84;98296.78;6247246;22;20417;-77
2021/05/02 08:20:33;;;;;;;5.10;2.92;;;;;;;24.49;47.75;98301.91;6272960;22;20079;-77
2021/05/02 08:22:59;;;;;;;14.38;3.08;;;;;;;24.61;48.63;98296.06;6247247;22;20003;-77
2021/05/02 08:25:24;;;;;;;10.00;3.35;;;;;;;24.70;47.39;98287.50;6272769;22;19996;-77
2021/05/02 08:27:50;;;;;;;11.25;3.58;;;;;;;24.85;47.25;98283.59;6246731;22;20058;-77
2021/05/02 08:30:17;;;;;;;8.45;3.75;;;;;;;24.97;47.25;98278.91;6272536;22;19999;-77
2021/05/02 08:32:43;;;;;;;7.07;3.70;;;;;;;25.12;46.88;98275.00;6247147;22;20370;-77
2021/05/02 08:35:09;;;;;;;10.38;3.78;;;;;;;25.21;46.54;98266.38;6274055;22;20055;-77
2021/05/02 08:37:34;;;;;;;11.00;3.42;;;;;;;25.32;46.36;98269.84;6274306;22;20000;-77
2021/05/02 08:40:00;;;;;;;5.65;3.53;;;;;;;25.46;46.55;98276.50;6273596;22;20000;-77
2021/05/02 08:42:25;;;;;;;6.30;3.03;;;;;;;25.54;45.73;98276.09;6246888;22;20031;-77
2021/05/02 08:44:52;;;;;;;7.18;2.53;;;;;;;25.67;45.71;98270.16;6273723;22;20023;-77
2021/05/02 08:47:18;;;;;;;6.75;2.90;;;;;;;25.79;45.76;98268.97;6274060;22;19996;-77
2021/05/02 08:49:44;;;;;;;5.35;2.63;;;;;;;25.94;44.79;98277.88;6273829;22;19999;-77
2021/05/02 08:52:10;;;;;;;10.10;4.10;;;;;;;26.12;45.01;98277.84;6273718;22;20042;-77
2021/05/02 08:54:37;;;;;;;9.60;3.03;;;;;;;26.31;44.17;98273.81;6246729;22;20012;-77
2021/05/02 08:57:03;;;;;;;9.38;3.13;;;;;;;26.51;44.19;98274.06;6246910;22;20010;-78
2021/05/02 08:59:28;;;;;;;8.38;3.10;;;;;;;26.69;43.58;98271.19;6273749;22;20050;-78
2021/05/02 09:01:58;;;;;;;10.95;3.92;;;;;;;26.84;42.95;98269.16;6273538;22;20038;-78
2021/05/02 09:04:24;;;;;;;9.18;3.50;;;;;;;27.01;43.42;98281.16;6280811;22;20022;-78
2021/05/02 09:06:50;;;;;;;6.22;2.60;;;;;;;27.12;41.86;98276.38;6304878;22;20003;-78
2021/05/02 09:09:16;;;;;;;7.18;2.67;;;;;;;27.26;42.07;98264.44;6304950;22;19996;-77
2021/05/02 09:11:47;;;;;;;6.60;2.95;;;;;;;27.38;41.89;98274.16;6304385;22;20430;-78
2021/05/02 09:14:16;;;;;;;8.63;2.80;;;;;;;27.53;40.70;98283.03;6303297;22;20056;-78
2021/05/02 09:16:46;;;;;;;5.55;2.63;;;;;;;27.65;41.39;98284.47;6304595;22;20007;-78
2021/05/02 09:19:12;;;;;;;4.93;2.97;;;;;;;27.78;41.49;98281.94;6303420;22;20383;-78
2021/05/02 09:21:38;;;;;;;7.45;3.60;;;;;;;27.94;41.07;98292.34;6277347;22;20022;-78
2021/05/02 09:24:07;;;;;;;6.40;2.88;;;;;;;27.99;40.11;98291.13;6304525;22;19999;-78
2021/05/02 09:26:36;;;;;;;7.47;2.88;;;;;;;28.10;39.89;98302.81;6304980;22;20504;-78
2021/05/02 09:29:06;;;;;;;8.35;3.67;;;;;;;28.15;39.57;98302.34;6303943;22;19995;-78
2021/05/02 09:31:36;;;;;;;7.28;2.67;;;;;;;28.16;39.45;98323.13;6279633;22;20009;-78
2021/05/02 09:34:15;;;;;;;6.60;2.45;;;;;;;28.24;40.80;98308.09;6305200;22;20007;-78
2021/05/02 09:36:57;;;;;;;12.98;3.17;;;;;;;28.33;40.59;98313.09;6305253;22;20004;-78
2021/05/02 09:39:38;;;;;;;5.88;3.05;;;;;;;28.43;40.01;98309.41;6305389;22;19999;-78
2021/05/02 09:42:10;;;;;;;8.65;3.42;;;;;;;28.50;40.14;98321.50;6306718;22;20080;-76
2021/05/02 09:44:41;;;;;;;8.95;2.88;;;;;;;28.60;39.88;98324.09;6305117;22;19999;-78
2021/05/02 09:47:24;;;;;;;6.05;2.90;;;;;;;28.55;39.61;98324.56;6305177;22;20003;-78
2021/05/02 09:50:06;;;;;;;5.18;2.78;;;;;;;28.45;40.21;98328.22;6304824;22;20003;-78
2021/05/02 09:52:54;;;;;;;8.15;2.33;;;;;;;28.32;39.97;98332.72;6306744;22;20077;-78
2021/05/02 09:55:22;;;;;;;6.90;2.17;;;;;;;28.16;40.05;98339.63;6306660;22;20030;-78
2021/05/02 09:57:59;;;;;;;11.15;2.95;;;;;;;28.06;40.97;98343.28;6304592;22;19999;-78
2021/05/02 10:00:27;;;;;;;6.57;2.88;;;;;;;28.02;40.42;98345.28;6305266;22;20074;-78
2021/05/02 10:02:53;;;;;;;8.38;3.00;;;;;;;27.92;40.47;98341.47;6304802;22;20006;-78
2021/05/02 10:05:19;;;;;;;8.90;3.35;;;;;;;27.80;40.83;98348.25;6304586;22;20098;-78
2021/05/02 10:07:45;;;;;;;10.32;4.05;;;;;;;27.76;41.03;98342.03;6278416;22;19996;-78
2021/05/02 10:10:11;;;;;;;6.67;3.47;;;;;;;27.68;41.66;98335.06;6279031;22;20433;-78
2021/05/02 10:12:40;;;;;;;10.75;2.70;;;;;;;27.59;42.63;98336.31;6305118;22;20002;-78
2021/05/02 10:15:07;;;;;;;8.27;3.13;;;;;;;27.56;42.63;98339.88;6306492;22;19995;-78
2021/05/02 10:17:33;;;;;;;6.40;2.53;;;;;;;27.59;42.38;98346.53;6304539;22;19999;-79
2021/05/02 10:19:59;;;;;;;8.85;2.92;;;;;;;27.60;41.84;98337.09;6305682;22;19999;-78
2021/05/02 10:22:25;;;;;;;8.52;2.95;;;;;;;27.60;41.74;98320.59;6278713;22;20072;-77
2021/05/02 10:24:51;;;;;;;5.47;2.83;;;;;;;27.68;41.62;98321.31;6306172;22;20189;-78
2021/05/02 10:27:17;;;;;;;8.23;2.78;;;;;;;27.77;42.13;98305.91;6304473;22;20177;-78
2021/05/02 10:29:49;;;;;;;7.30;2.92;;;;;;;27.82;42.17;98293.69;6304026;22;20023;-78
2021/05/02 10:32:18;;;;;;;6.70;3.15;;;;;;;27.86;41.97;98290.91;6306263;22;20526;-78
2021/05/02 10:34:51;;;;;;;6.70;2.67;;;;;;;27.91;41.75;98291.22;6304550;22;20000;-78
2021/05/02 10:37:23;;;;;;;5.47;2.72;;;;;;;27.95;41.32;98289.22;6304392;22;20007;-78
2021/05/02 10:40:08;;;;;;;7.95;2.85;;;;;;;27.95;41.49;98288.41;6278553;22;20034;-78
2021/05/02 10:42:41;;;;;;;11.25;3.25;;;;;;;28.01;42.06;98288.75;6304479;22;20321;-76
2021/05/02 10:45:39;;;;;;;8.43;2.75;;;;;;;28.05;42.20;98301.28;6304112;22;20006;-79
2021/05/02 10:48:07;;;;;;;5.53;2.25;;;;;;;28.04;41.63;98285.16;6278407;22;20022;-78
2021/05/02 10:50:46;;;;;;;7.07;2.92;;;;;;;28.04;41.86;98287.91;6304159;22;20026;-79
2021/05/02 10:53:17;;;;;;;7.28;3.65;;;;;;;28.06;42.12;98280.84;6278570;22;20064;-79
2021/05/02 10:56:03;;;;;;;8.63;3.20;;;;;;;28.06;42.03;98280.06;6304318;22;20003;-79
2021/05/02 10:58:29;;;;;;;8.40;3.03;;;;;;;27.92;42.26;98272.78;6304080;22;19999;-78
2021/05/02 11:01:16;;;;;;;9.13;2.67;;;;;;;27.74;42.10;98265.50;6305154;22;20436;-79
2021/05/02 11:03:41;;;;;;;10.40;3.08;;;;;;;27.57;42.45;98253.53;6256470;22;20467;-76
2021/05/02 11:06:34;;;;;;;10.45;2.83;;;;;;;27.49;42.71;98254.84;6303761;22;20011;-78
2021/05/02 11:09:01;;;;;;;5.35;2.20;;;;;;;27.41;42.43;98261.59;6303495;22;20429;-78
2021/05/02 11:11:33;;;;;;;8.68;3.40;;;;;;;27.44;42.54;98274.50;6305831;22;19999;-78
2021/05/02 11:14:14;;;;;;;7.28;2.60;;;;;;;27.46;42.06;98272.13;6278179;22;19998;-79
2021/05/02 11:16:41;;;;;;;5.30;2.67;;;;;;;27.51;41.95;98268.16;6304304;22;19999;-78
2021/05/02 11:19:32;;;;;;;7.35;2.55;;;;;;;27.64;42.01;98260.94;6278313;22;20004;-78
2021/05/02 11:22:01;;;;;;;9.50;2.60;;;;;;;27.77;41.02;98258.41;6291731;22;20459;-76
2021/05/02 11:24:39;;;;;;;9.98;2.65;;;;;;;27.92;40.91;98262.53;6305910;22;20005;-76
2021/05/02 11:30:00;;;;;;;4.10;2.83;;;;;;;28.25;40.67;98251.16;6306360;22;20375;-78
2021/05/02 11:32:33;;;;;;;10.32;2.45;;;;;;;28.42;38.93;98255.59;6305873;22;20320;-76
2021/05/02 11:35:00;;;;;;;10.00;3.13;;;;;;;28.55;38.66;98261.31;6303713;22;20006;-78
2021/05/02 11:37:38;;;;;;;;;;;;;;;28.71;38.07;98249.69;6306303;22;20003;-76
2021/05/02 11:40:28;;;;;;;9.05;2.75;;;;;;;28.86;37.41;98250.22;6305364;22;19905;-76